createdAt,value
2018-04-07T00:57:40.137Z,99715
2018-04-07T01:00:10.620Z,99713
2018-04-07T01:02:41.139Z,99720
2018-04-07T01:05:11.661Z,99725
2018-04-07T01:07:41.676Z,99728
2018-04-07T01:10:12.153Z,99728
2018-04-07T01:12:42.506Z,99726
2018-04-07T01:15:12.830Z,99725
2018-04-07T01:17:43.094Z,99719
2018-04-07T01:20:13.548Z,99723
2018-04-07T01:22:43.913Z,99726
2018-04-07T01:25:14.397Z,99724
2018-04-07T01:27:44.329Z,99727
2018-04-07T01:30:14.647Z,99726
2018-04-07T01:32:44.961Z,99727
2018-04-07T01:35:15.197Z,99735
2018-04-07T01:37:45.410Z,99740
2018-04-07T01:40:16.219Z,99741
2018-04-07T01:42:46.724Z,99744
2018-04-07T01:45:17.088Z,99750
2018-04-07T01:47:47.317Z,99753
2018-04-07T01:50:17.673Z,99757
2018-04-07T01:52:47.988Z,99754
2018-04-07T01:55:18.400Z,99754
2018-04-07T01:57:48.936Z,99765
2018-04-07T02:00:18.993Z,99765
2018-04-07T02:02:49.277Z,99760
2018-04-07T02:05:19.610Z,99754
2018-04-07T02:07:49.509Z,99753
2018-04-07T02:10:19.816Z,99749
2018-04-07T02:12:49.988Z,99752
2018-04-07T02:15:20.070Z,99760
2018-04-07T02:17:50.553Z,99766
2018-04-07T02:20:21.026Z,99767
2018-04-07T02:22:51.601Z,99767
2018-04-07T02:25:22.021Z,99763
2018-04-07T02:27:52.040Z,99768
2018-04-07T02:30:22.028Z,99769
2018-04-07T02:32:52.620Z,99773
2018-04-07T02:35:23.311Z,99774
2018-04-07T02:37:54.118Z,99780
2018-04-07T02:40:24.528Z,99778
2018-04-07T02:42:55.765Z,99780
2018-04-07T02:45:25.927Z,99782
2018-04-07T02:47:56.216Z,99783
2018-04-07T02:50:26.480Z,99791
2018-04-07T02:52:56.626Z,99789
2018-04-07T02:55:26.998Z,99796
2018-04-07T02:57:58.022Z,99802
2018-04-07T03:00:28.259Z,99801
2018-04-07T03:02:58.529Z,99804
2018-04-07T03:05:28.820Z,99806
2018-04-07T03:07:58.998Z,99804
2018-04-07T03:10:29.858Z,99807
2018-04-07T03:12:59.982Z,99812
2018-04-07T03:15:30.013Z,99816
2018-04-07T03:18:00.863Z,99816
2018-04-07T03:20:31.485Z,99821
2018-04-07T03:23:02.488Z,99821
2018-04-07T03:25:32.769Z,99822
2018-04-07T03:28:03.221Z,99820
2018-04-07T03:30:32.947Z,99827
2018-04-07T03:33:03.759Z,99831
2018-04-07T03:35:34.176Z,99841
2018-04-07T03:38:04.867Z,99846
2018-04-07T03:40:35.651Z,99852
2018-04-07T03:43:05.964Z,99856
2018-04-07T03:45:36.136Z,99851
2018-04-07T03:48:06.256Z,99857
2018-04-07T03:50:36.414Z,99866
2018-04-07T03:53:07.764Z,99872
2018-04-07T03:55:38.121Z,99878
2018-04-07T03:58:07.995Z,99888
2018-04-07T04:00:38.288Z,99891
2018-04-07T04:03:08.861Z,99897
2018-04-07T04:05:39.420Z,99899
2018-04-07T04:08:09.742Z,99901
2018-04-07T04:10:39.480Z,99904
2018-04-07T04:13:09.276Z,99905
2018-04-07T04:15:39.066Z,99912
2018-04-07T04:18:08.898Z,99914
2018-04-07T04:20:38.660Z,99916
2018-04-07T04:23:08.470Z,99919
2018-04-07T04:25:38.286Z,99919
2018-04-07T04:28:08.144Z,99928
2018-04-07T04:30:37.884Z,99947
2018-04-07T04:33:07.588Z,99953
2018-04-07T04:35:37.341Z,99952
2018-04-07T04:38:07.237Z,99955
2018-04-07T04:40:37.020Z,99955
2018-04-07T04:43:06.839Z,99958
2018-04-07T04:45:36.611Z,99954
2018-04-07T04:48:06.456Z,99957
2018-04-07T04:50:36.303Z,99956
2018-04-07T04:53:06.066Z,99962
2018-04-07T04:55:35.921Z,99958
2018-04-07T04:58:05.685Z,99965
2018-04-07T05:00:35.484Z,99962
2018-04-07T05:03:05.254Z,99968
2018-04-07T05:05:35.028Z,99967
2018-04-07T05:08:04.890Z,99970
2018-04-07T05:10:34.607Z,99971
2018-04-07T05:13:04.405Z,99976
2018-04-07T05:15:34.260Z,99975
2018-04-07T05:18:04.030Z,99971
2018-04-07T05:20:33.849Z,99972
2018-04-07T05:23:03.617Z,99976
2018-04-07T05:25:33.424Z,99974
2018-04-07T05:28:03.206Z,99970
2018-04-07T05:30:32.937Z,99967
2018-04-07T05:33:02.747Z,99969
2018-04-07T05:35:32.638Z,99970
2018-04-07T05:38:02.434Z,99978
2018-04-07T05:40:32.143Z,99971
2018-04-07T05:43:01.983Z,99979
2018-04-07T05:45:31.837Z,99986
2018-04-07T05:48:01.612Z,99985
2018-04-07T05:50:31.330Z,99994
2018-04-07T05:53:01.063Z,99997
2018-04-07T05:55:30.809Z,99995
2018-04-07T05:58:00.641Z,99994
2018-04-07T06:00:30.413Z,99995
2018-04-07T06:03:00.231Z,100001
2018-04-07T06:05:30.025Z,100002
2018-04-07T06:07:59.818Z,100005
2018-04-07T06:10:29.597Z,100010
2018-04-07T06:12:59.317Z,100010
2018-04-07T06:15:29.086Z,100013
2018-04-07T06:17:58.893Z,100017
2018-04-07T06:27:16.107Z,100035
2018-04-07T06:29:45.844Z,100040
2018-04-07T06:32:15.555Z,100042
2018-04-07T06:34:45.343Z,100040
2018-04-07T06:37:15.235Z,100042
2018-04-07T06:39:44.926Z,100034
2018-04-07T06:42:14.734Z,100038
2018-04-07T06:44:44.543Z,100033
2018-04-07T06:47:14.369Z,100040
2018-04-07T06:49:44.073Z,100043
2018-04-07T06:52:13.797Z,100043
2018-04-07T06:54:43.579Z,100054
2018-04-07T06:57:13.396Z,100057
2018-04-07T06:59:43.255Z,100051
2018-04-07T07:02:13.067Z,100059
2018-04-07T07:04:42.858Z,100056
2018-04-07T07:07:12.655Z,100060
2018-04-07T07:09:42.359Z,100052
2018-04-07T07:12:12.105Z,100062
2018-04-07T07:14:41.939Z,100070
2018-04-07T07:17:11.736Z,100077
2018-04-07T07:19:41.542Z,100080
2018-04-07T07:22:11.369Z,100081
2018-04-07T07:24:41.242Z,100089
2018-04-07T07:27:11.057Z,100087
2018-04-07T07:29:40.776Z,100088
2018-04-07T07:32:10.518Z,100098
2018-04-07T07:34:40.309Z,100095
2018-04-07T07:37:10.145Z,100102
2018-04-07T07:39:39.885Z,100101
2018-04-07T07:42:09.650Z,100102
2018-04-07T07:44:39.527Z,100109
2018-04-07T07:47:09.316Z,100103
2018-04-07T07:49:39.062Z,100104
2018-04-07T07:52:08.763Z,100098
2018-04-07T07:54:38.575Z,100105
2018-04-07T07:57:08.405Z,100109
2018-04-07T07:59:38.150Z,100105
2018-04-07T08:02:07.914Z,100103
2018-04-07T08:04:37.722Z,100105
2018-04-07T08:07:07.519Z,100106
2018-04-07T08:09:37.291Z,100104
2018-04-07T08:12:07.035Z,100108
2018-04-07T08:14:36.751Z,100107
2018-04-07T08:17:06.557Z,100106
2018-04-07T08:19:36.352Z,100106
2018-04-07T08:22:06.175Z,100108
2018-04-07T08:24:35.991Z,100105
2018-04-07T08:27:05.879Z,100101
2018-04-07T08:29:35.794Z,100110
2018-04-07T08:32:05.595Z,100101
2018-04-07T08:34:35.478Z,100101
2018-04-07T08:37:05.249Z,100099
2018-04-07T08:39:35.079Z,100102
2018-04-07T08:42:04.922Z,100101
2018-04-07T08:44:34.726Z,100101
2018-04-07T08:47:04.555Z,100097
2018-04-07T08:49:34.281Z,100105
2018-04-07T08:52:04.043Z,100102
2018-04-07T08:54:33.862Z,100101
2018-04-07T08:57:03.701Z,100095
2018-04-07T08:59:33.489Z,100093
2018-04-07T09:02:03.360Z,100087
2018-04-07T09:04:33.284Z,100077
2018-04-07T09:07:03.192Z,100076
2018-04-07T09:09:32.999Z,100079
2018-04-07T09:12:02.812Z,100071
2018-04-07T09:14:32.725Z,100071
2018-04-07T09:17:02.750Z,100073
2018-04-07T09:19:32.766Z,100063
2018-04-07T09:22:02.674Z,100058
2018-04-07T09:24:33.590Z,100064
2018-04-07T09:27:03.638Z,100063
2018-04-07T09:29:33.447Z,100071
2018-04-07T09:32:03.251Z,100068
2018-04-07T09:34:34.003Z,100071
2018-04-07T09:37:03.784Z,100056
2018-04-07T09:39:33.497Z,100062
2018-04-07T09:42:03.463Z,100061
2018-04-07T09:44:33.283Z,100065
2018-04-07T09:47:03.052Z,100059
2018-04-07T09:49:32.831Z,100061
2018-04-07T09:52:02.528Z,100055
2018-04-07T09:54:32.331Z,100053
2018-04-07T09:57:02.073Z,100058
2018-04-07T09:59:31.869Z,100053
2018-04-07T10:02:01.686Z,100049
2018-04-07T10:04:31.496Z,100051
2018-04-07T10:07:01.264Z,100052
2018-04-07T10:09:31.058Z,100046
2018-04-07T10:12:00.882Z,100047
2018-04-07T10:14:30.797Z,100036
2018-04-07T10:17:00.825Z,100030
2018-04-07T10:19:30.824Z,100032
2018-04-07T10:22:00.625Z,100031
2018-04-07T10:24:30.551Z,100033
2018-04-07T10:27:00.490Z,100032
2018-04-07T10:29:30.285Z,100029
2018-04-07T10:32:00.074Z,100026
2018-04-07T10:34:30.020Z,100028
2018-04-07T10:36:59.801Z,100026
2018-04-07T10:39:29.653Z,100021
2018-04-07T10:41:59.756Z,100023
2018-04-07T10:44:29.581Z,100024
2018-04-07T10:46:59.452Z,100016
2018-04-07T10:49:29.296Z,100017
2018-04-07T10:51:59.112Z,100005
2018-04-07T10:54:29.123Z,100001
2018-04-07T10:56:59.061Z,99993
2018-04-07T10:59:28.955Z,99998
2018-04-07T11:01:58.787Z,100002
2018-04-07T11:04:28.701Z,100004
2018-04-07T11:06:58.601Z,99996
2018-04-07T11:09:28.345Z,100006
2018-04-07T11:11:58.040Z,100001
2018-04-07T11:14:27.748Z,99992
2018-04-07T11:16:57.508Z,99995
2018-04-07T11:19:27.301Z,100000
2018-04-07T11:21:57.074Z,99994
2018-04-07T11:24:26.879Z,99983
2018-04-07T11:26:56.632Z,99989
2018-04-07T11:29:26.366Z,99982
2018-04-07T11:31:56.069Z,99981
2018-04-07T11:34:25.889Z,99975
2018-04-07T11:36:55.660Z,99980
2018-04-07T11:39:25.480Z,99979
2018-04-07T11:41:55.248Z,99969
2018-04-07T11:44:25.025Z,99976
2018-04-07T11:46:54.857Z,99963
2018-04-07T11:49:24.584Z,99960
2018-04-07T11:51:54.279Z,99962
2018-04-07T11:54:24.151Z,99967
2018-04-07T11:56:54.149Z,99973
2018-04-07T11:59:23.978Z,99966
2018-04-07T12:01:53.750Z,99978
2018-04-07T12:04:23.528Z,99976
2018-04-07T12:06:53.377Z,99966
2018-04-07T12:09:23.069Z,99955
2018-04-07T12:11:52.807Z,99955
2018-04-07T12:14:22.584Z,99961
2018-04-07T12:16:52.419Z,99954
2018-04-07T12:19:22.251Z,99952
2018-04-07T12:21:52.001Z,99954
2018-04-07T12:24:21.799Z,99945
2018-04-07T12:26:51.636Z,99945
2018-04-07T12:29:21.327Z,99952
2018-04-07T12:31:51.061Z,99952
2018-04-07T12:34:21.506Z,99949
2018-04-07T12:36:51.358Z,99944
2018-04-07T12:39:21.181Z,99939
2018-04-07T12:41:50.971Z,99938
2018-04-07T12:44:20.911Z,99937
2018-04-07T12:46:50.764Z,99932
2018-04-07T12:49:20.614Z,99929
2018-04-07T12:51:50.324Z,99923
2018-04-07T12:54:20.134Z,99909
2018-04-07T12:56:49.909Z,99909
2018-04-07T12:59:19.762Z,99915
2018-04-07T13:01:49.575Z,99925
2018-04-07T13:04:19.456Z,99924
2018-04-07T13:06:49.322Z,99912
2018-04-07T13:09:19.047Z,99922
2018-04-07T13:11:48.936Z,99923
2018-04-07T13:14:19.591Z,99918
2018-04-07T13:16:50.391Z,99915
2018-04-07T13:19:20.344Z,99909
2018-04-07T13:21:50.228Z,99905
2018-04-07T13:24:20.052Z,99902
2018-04-07T13:26:49.970Z,99911
2018-04-07T13:29:19.775Z,99908
2018-04-07T13:31:49.587Z,99914
2018-04-07T13:34:19.347Z,99909
2018-04-07T13:36:49.106Z,99904
2018-04-07T13:39:19.021Z,99901
2018-04-07T13:41:48.837Z,99894
2018-04-07T13:44:18.756Z,99890
2018-04-07T13:46:48.566Z,99890
2018-04-07T13:49:18.267Z,99896
2018-04-07T13:51:47.958Z,99889
2018-04-07T13:54:17.747Z,99887
2018-04-07T13:56:47.561Z,99895
2018-04-07T13:59:17.319Z,99896
2018-04-07T14:01:47.047Z,99889
2018-04-07T14:04:16.894Z,99892
2018-04-07T14:06:46.640Z,99890
2018-04-07T14:09:16.508Z,99891
2018-04-07T14:11:46.389Z,99898
2018-04-07T14:14:16.306Z,99890
2018-04-07T14:16:46.237Z,99889
2018-04-07T14:19:16.141Z,99889
2018-04-07T14:21:46.071Z,99892
2018-04-07T14:24:15.957Z,99892
2018-04-07T14:26:45.878Z,99882
2018-04-07T14:29:15.646Z,99879
2018-04-07T14:31:45.508Z,99886
2018-04-07T14:34:15.282Z,99885
2018-04-07T14:36:45.146Z,99893
2018-04-07T14:39:15.018Z,99901
2018-04-07T14:41:44.872Z,99899
2018-04-07T14:44:14.780Z,99903
2018-04-07T14:46:44.683Z,99900
2018-04-07T14:49:14.599Z,99895
2018-04-07T14:51:44.526Z,99894
2018-04-07T14:54:14.326Z,99902
2018-04-07T14:56:44.253Z,99912
2018-04-07T14:59:14.065Z,99909
2018-04-07T15:01:44.591Z,99919
2018-04-07T15:04:14.406Z,99920
2018-04-07T15:06:44.312Z,99908
2018-04-07T15:09:14.235Z,99912
2018-04-07T15:11:44.144Z,99919
2018-04-07T15:14:13.941Z,99920
2018-04-07T15:16:43.708Z,99917
2018-04-07T15:19:13.522Z,99922
2018-04-07T15:21:43.278Z,99921
2018-04-07T15:24:13.084Z,99924
2018-04-07T15:26:43.021Z,99922
2018-04-07T15:29:12.838Z,99921
2018-04-07T15:31:42.702Z,99918
2018-04-07T15:34:12.718Z,99917
2018-04-07T15:36:42.684Z,99920
2018-04-07T15:39:12.600Z,99923
2018-04-07T15:41:42.524Z,99919
2018-04-07T15:44:12.453Z,99927
2018-04-07T15:46:43.169Z,99924
2018-04-07T15:49:13.138Z,99914
2018-04-07T15:51:43.106Z,99925
2018-04-07T15:54:13.023Z,99929
2018-04-07T15:56:42.954Z,99931
2018-04-07T15:59:12.758Z,99932
2018-04-07T16:01:42.759Z,99930
2018-04-07T16:04:12.676Z,99942
2018-04-07T16:06:43.205Z,99942
2018-04-07T16:09:13.100Z,99947
2018-04-07T16:11:42.928Z,99951
2018-04-07T16:14:12.737Z,99949
2018-04-07T16:16:42.474Z,99959
2018-04-07T16:19:12.578Z,99957
2018-04-07T16:21:42.387Z,99961
2018-04-07T16:24:13.216Z,99957
2018-04-07T16:26:42.907Z,99957
2018-04-07T16:29:12.701Z,99957
2018-04-07T16:31:42.476Z,99953
2018-04-07T16:34:12.242Z,99959
2018-04-07T16:36:42.140Z,99963
2018-04-07T16:39:11.932Z,99969
2018-04-07T16:41:41.719Z,99975
2018-04-07T16:44:11.500Z,99976
2018-04-07T16:46:41.288Z,99977
2018-04-07T16:49:11.016Z,99980
2018-04-07T16:51:40.704Z,99980
2018-04-07T16:54:10.497Z,99973
2018-04-07T16:56:40.286Z,99989
2018-04-07T16:59:10.078Z,99995
2018-04-07T17:01:39.821Z,99993
2018-04-07T17:04:09.711Z,99997
2018-04-07T17:06:39.513Z,99996
2018-04-07T17:09:09.276Z,100000
2018-04-07T17:11:38.990Z,99999
2018-04-07T17:14:08.700Z,100004
2018-04-07T17:16:38.487Z,100007
2018-04-07T17:19:08.262Z,100004
2018-04-07T17:21:44.728Z,100016
2018-04-07T17:24:14.897Z,100022
2018-04-07T17:26:44.797Z,100023
2018-04-07T17:29:14.605Z,100030
2018-04-07T17:31:44.528Z,100031
2018-04-07T17:34:14.347Z,100033
2018-04-07T17:36:44.361Z,100032
2018-04-07T17:39:14.272Z,100040
2018-04-07T17:41:44.184Z,100046
2018-04-07T17:44:13.914Z,100051
2018-04-07T17:46:43.646Z,100057
2018-04-07T17:49:13.378Z,100060
2018-04-07T17:51:43.130Z,100064
2018-04-07T17:54:12.911Z,100073
2018-04-07T17:56:42.670Z,100077
2018-04-07T17:59:12.449Z,100078
2018-04-07T18:01:42.201Z,100085
2018-04-07T18:04:11.949Z,100086
2018-04-07T18:06:41.765Z,100083
2018-04-07T18:09:11.492Z,100090
2018-04-07T18:11:41.220Z,100092
2018-04-07T18:14:11.017Z,100093
2018-04-07T18:16:40.756Z,100100
2018-04-07T18:19:10.525Z,100102
2018-04-07T18:21:40.263Z,100100
2018-04-07T18:24:09.990Z,100104
2018-04-07T18:26:39.781Z,100114
2018-04-07T18:29:09.534Z,100114
2018-04-07T18:31:39.266Z,100115
2018-04-07T18:34:09.064Z,100120
2018-04-07T18:36:38.800Z,100121
2018-04-07T18:39:08.602Z,100129
2018-04-07T18:41:38.352Z,100120
2018-04-07T18:44:08.127Z,100125
2018-04-07T18:46:37.980Z,100126
2018-04-07T18:49:07.709Z,100131
2018-04-07T18:51:37.428Z,100129
2018-04-07T18:54:07.209Z,100135
2018-04-07T18:56:36.941Z,100137
2018-04-07T18:59:06.831Z,100140
2018-04-07T19:01:36.598Z,100144
2018-04-07T19:04:06.379Z,100140
2018-04-07T19:06:36.134Z,100144
2018-04-07T19:09:06.907Z,100145
2018-04-07T19:11:36.751Z,100154
2018-04-07T19:14:06.477Z,100155
2018-04-07T19:16:36.235Z,100157
2018-04-07T19:19:06.001Z,100155
2018-04-07T19:21:35.748Z,100164
2018-04-07T19:24:05.550Z,100168
2018-04-07T19:26:35.274Z,100171
2018-04-07T19:29:04.990Z,100176
2018-04-07T19:31:34.723Z,100172
2018-04-07T19:34:04.484Z,100181
2018-04-07T19:36:34.287Z,100186
2018-04-07T19:39:04.175Z,100186
2018-04-07T19:41:33.962Z,100191
2018-04-07T19:44:03.755Z,100194
2018-04-07T19:46:33.554Z,100198
2018-04-07T19:49:03.351Z,100201
2018-04-07T19:51:33.118Z,100202
2018-04-07T19:54:02.880Z,100200
2018-04-07T19:56:32.655Z,100205
2018-04-07T19:59:02.482Z,100211
2018-04-07T20:01:32.212Z,100217
2018-04-07T20:04:01.970Z,100223
2018-04-07T20:06:31.758Z,100214
2018-04-07T20:09:01.486Z,100215
2018-04-07T20:11:31.247Z,100221
2018-04-07T20:14:00.956Z,100231
2018-04-07T20:16:30.717Z,100223
2018-04-07T20:19:00.486Z,100220
2018-04-07T20:21:30.265Z,100221
2018-04-07T20:23:59.973Z,100216
2018-04-07T20:26:29.724Z,100220
2018-04-07T20:28:59.440Z,100219
2018-04-07T20:31:29.199Z,100225
2018-04-07T20:33:58.926Z,100230
2018-04-07T20:36:28.659Z,100231
2018-04-07T20:38:58.546Z,100238
2018-04-07T20:41:28.246Z,100234
2018-04-07T20:43:58.000Z,100230
2018-04-07T20:46:27.845Z,100237
2018-04-07T20:48:57.603Z,100229
2018-04-07T20:51:27.362Z,100232
2018-04-07T20:53:57.136Z,100243
2018-04-07T20:56:26.902Z,100233
2018-04-07T20:58:56.757Z,100244
2018-04-07T21:01:26.467Z,100252
2018-04-07T21:03:56.299Z,100253
2018-04-07T21:06:26.084Z,100252
2018-04-07T21:08:55.807Z,100258
2018-04-07T21:11:25.637Z,100253
2018-04-07T21:13:55.345Z,100259
2018-04-07T21:16:25.197Z,100261
2018-04-07T21:18:54.956Z,100259
2018-04-07T21:21:24.696Z,100256
2018-04-07T21:23:54.555Z,100247
2018-04-07T21:26:24.349Z,100254
2018-04-07T21:28:54.932Z,100262
2018-04-07T21:31:25.407Z,100262
2018-04-07T21:33:55.857Z,100260
2018-04-07T21:36:26.327Z,100267
2018-04-07T21:38:56.220Z,100260
2018-04-07T21:41:25.975Z,100268
2018-04-07T21:43:56.671Z,100262
2018-04-07T21:46:27.412Z,100269
2018-04-07T21:48:58.641Z,100267
2018-04-07T21:51:28.502Z,100269
2018-04-07T21:53:58.965Z,100259
2018-04-07T21:56:29.372Z,100268
2018-04-07T21:58:59.712Z,100263
2018-04-07T22:01:30.171Z,100260
2018-04-07T22:04:00.542Z,100269
2018-04-07T22:06:30.834Z,100259
2018-04-07T22:09:01.405Z,100259
2018-04-07T22:11:31.966Z,100255
2018-04-07T22:14:02.305Z,100258
2018-04-07T22:16:32.568Z,100261
2018-04-07T22:19:02.952Z,100260
2018-04-07T22:21:33.407Z,100261
2018-04-07T22:24:03.927Z,100255
2018-04-07T22:26:35.421Z,100251
2018-04-07T22:29:05.930Z,100253
2018-04-07T22:31:36.453Z,100253
2018-04-07T22:34:06.877Z,100260
2018-04-07T22:36:37.326Z,100260
2018-04-07T22:39:07.956Z,100266
2018-04-07T22:41:38.447Z,100263
2018-04-07T22:44:08.635Z,100256
2018-04-07T22:46:39.154Z,100257
2018-04-07T22:49:09.468Z,100255
2018-04-07T22:51:40.067Z,100258
2018-04-07T22:54:10.911Z,100252
2018-04-07T22:56:41.424Z,100252
2018-04-07T22:59:12.025Z,100255
2018-04-07T23:01:42.486Z,100255
2018-04-07T23:04:13.000Z,100249
2018-04-07T23:06:43.597Z,100256
2018-04-07T23:09:14.411Z,100249
2018-04-07T23:11:45.194Z,100248
2018-04-07T23:14:16.615Z,100245
2018-04-07T23:16:47.010Z,100246
2018-04-07T23:19:17.285Z,100245
2018-04-07T23:21:47.641Z,100241
2018-04-07T23:24:18.169Z,100241
2018-04-07T23:26:48.667Z,100238
2018-04-07T23:29:18.969Z,100236
2018-04-07T23:31:49.430Z,100243
2018-04-07T23:34:19.762Z,100244
2018-04-07T23:36:50.236Z,100238
2018-04-07T23:39:20.600Z,100242
2018-04-07T23:41:50.931Z,100246
2018-04-07T23:44:21.160Z,100246
2018-04-07T23:46:51.450Z,100242
2018-04-07T23:49:21.876Z,100237
2018-04-07T23:51:52.576Z,100238
2018-04-07T23:54:22.641Z,100244
2018-04-07T23:56:52.969Z,100237
2018-04-07T23:59:23.297Z,100235
